Time;durP1;ratioP1;P1;durP2;ratioP2;P2;SDS_P1;SDS_P2;PMS_P1;PMS_P2;Temp;Humidity;BMP_temperature;BMP_pressure;BME280_temperature;BME280_humidity;BME280_pressure;Samples;Min_cycle;Max_cycle;Signal;HPM_P1;HPM_P2
2023/07/08 00:00:20;;;;;;;12.02;4.15;;;24.50;71.30;;;;;;5040882;28;20040;-75
2023/07/08 00:02:46;;;;;;;8.57;4.43;;;24.40;74.10;;;;;;5047164;28;20540;-75
2023/07/08 00:05:13;;;;;;;10.57;4.32;;;24.50;73.10;;;;;;5046856;28;20152;-74
2023/07/08 00:07:40;;;;;;;11.02;4.13;;;24.50;72.30;;;;;;5045689;28;20064;-74
2023/07/08 00:10:25;;;;;;;10.90;5.20;;;24.40;71.80;;;;;;5046993;28;20158;-73
2023/07/08 00:12:54;;;;;;;16.33;4.18;;;24.70;70.50;;;;;;5045806;28;20025;-74
2023/07/08 00:15:24;;;;;;;11.05;4.80;;;24.60;71.30;;;;;;5047110;28;20147;-74
2023/07/08 00:17:49;;;;;;;10.93;4.75;;;24.70;71.50;;;;;;5050293;28;20025;-74
2023/07/08 00:20:20;;;;;;;8.67;4.23;;;24.70;72.20;;;;;;5049427;28;20040;-73
2023/07/08 00:22:46;;;;;;;10.45;4.30;;;24.70;70.70;;;;;;5048710;28;20672;-73
2023/07/08 00:25:14;;;;;;;7.60;3.83;;;24.70;74.10;;;;;;5050418;28;20421;-74
2023/07/08 00:27:41;;;;;;;11.23;4.57;;;24.50;71.70;;;;;;5050407;28;20032;-75
2023/07/08 00:30:27;;;;;;;10.75;4.20;;;24.60;72.80;;;;;;5049821;28;20029;-74
2023/07/08 00:32:54;;;;;;;14.95;4.30;;;24.40;73.80;;;;;;5050133;28;20055;-75
2023/07/08 00:35:35;;;;;;;9.90;3.80;;;24.40;76.50;;;;;;5050181;28;20056;-75
2023/07/08 00:38:01;;;;;;;15.10;4.88;;;24.40;73.00;;;;;;5048941;28;20086;-75
2023/07/08 00:40:30;;;;;;;8.80;4.35;;;24.40;72.80;;;;;;5050212;28;20636;-76
2023/07/08 00:42:57;;;;;;;13.63;4.30;;;24.50;71.50;;;;;;5050797;28;20021;-72
2023/07/08 00:45:34;;;;;;;9.07;4.38;;;24.40;72.30;;;;;;5050162;28;20039;-75
2023/07/08 00:48:16;;;;;;;8.85;4.25;;;24.50;71.90;;;;;;5050202;28;20032;-74
2023/07/08 00:50:42;;;;;;;11.63;4.65;;;24.50;72.60;;;;;;5048069;28;20113;-70
2023/07/08 00:53:28;;;;;;;13.27;4.82;;;24.40;72.80;;;;;;5050293;28;20111;-75
2023/07/08 00:55:58;;;;;;;11.98;4.78;;;24.50;73.30;;;;;;5049089;28;20085;-75
2023/07/08 00:58:26;;;;;;;10.68;5.50;;;24.50;72.80;;;;;;5049810;28;20028;-74
2023/07/08 01:00:54;;;;;;;9.68;4.65;;;24.50;72.20;;;;;;5048828;28;20048;-74
2023/07/08 01:03:21;;;;;;;10.27;4.72;;;24.50;74.50;;;;;;5048067;28;20029;-74
2023/07/08 01:05:47;;;;;;;11.23;4.30;;;24.40;74.80;;;;;;5049377;28;20051;-74
2023/07/08 01:08:13;;;;;;;;;;;24.30;77.70;;;;;;5049508;28;20104;-71
2023/07/08 01:10:48;;;;;;;12.23;5.10;;;24.20;75.60;;;;;;5050109;28;20344;-74
2023/07/08 01:13:15;;;;;;;16.58;4.47;;;24.20;74.70;;;;;;5049590;28;20033;-74
2023/07/08 01:15:43;;;;;;;11.90;4.57;;;24.20;76.30;;;;;;5050204;28;20092;-75
2023/07/08 01:18:11;;;;;;;7.13;4.15;;;24.30;74.50;;;;;;5049470;28;20025;-73
2023/07/08 01:20:37;;;;;;;12.10;4.97;;;24.20;75.10;;;;;;5049361;28;20043;-71
2023/07/08 01:23:04;;;;;;;16.42;4.38;;;24.30;76.70;;;;;;5049581;28;20033;-69
2023/07/08 01:25:31;;;;;;;8.05;3.95;;;24.20;76.30;;;;;;5048069;28;20060;-70
2023/07/08 01:27:57;;;;;;;10.50;5.10;;;24.30;75.30;;;;;;5049026;28;20103;-71
2023/07/08 01:30:23;;;;;;;14.18;4.60;;;24.30;75.10;;;;;;5049720;28;20555;-69
2023/07/08 01:32:54;;;;;;;11.10;4.55;;;24.10;78.80;;;;;;5049055;28;20033;-69
2023/07/08 01:35:21;;;;;;;11.30;4.75;;;24.20;76.10;;;;;;5049188;28;20027;-68
2023/07/08 01:37:53;;;;;;;12.85;4.32;;;24.20;75.90;;;;;;5048517;28;20025;-69
2023/07/08 01:40:19;;;;;;;8.15;5.22;;;24.20;74.90;;;;;;5048261;28;20041;-69
2023/07/08 01:42:45;;;;;;;14.77;4.83;;;24.20;80.00;;;;;;5048156;28;20028;-72
2023/07/08 01:45:12;;;;;;;20.33;6.25;;;24.20;81.30;;;;;;5048561;28;20016;-68
2023/07/08 01:47:39;;;;;;;8.70;4.40;;;24.20;78.90;;;;;;5048320;28;20025;-74
2023/07/08 01:50:06;;;;;;;7.70;4.47;;;24.30;80.20;;;;;;5048304;28;20424;-75
2023/07/08 01:52:32;;;;;;;9.85;3.95;;;24.10;80.10;;;;;;5048409;28;20063;-74
2023/07/08 01:55:00;;;;;;;12.80;4.88;;;24.10;79.20;;;;;;5049091;28;20509;-72
2023/07/08 01:57:25;;;;;;;14.65;4.45;;;23.90;77.70;;;;;;5049002;28;20040;-75
2023/07/08 01:59:51;;;;;;;12.13;4.73;;;23.80;78.80;;;;;;5048738;28;20021;-75
2023/07/08 02:02:16;;;;;;;10.60;4.37;;;23.90;82.00;;;;;;5047970;28;20405;-73
2023/07/08 02:04:42;;;;;;;8.83;4.70;;;23.90;84.20;;;;;;5048026;28;20067;-74
2023/07/08 02:07:08;;;;;;;12.37;4.37;;;23.70;83.20;;;;;;5063908;28;20294;-72
2023/07/08 02:09:33;;;;;;;9.53;4.97;;;23.60;86.40;;;;;;5048471;28;20028;-75
2023/07/08 02:11:59;;;;;;;10.23;4.73;;;23.70;85.50;;;;;;5048623;28;20276;-74
2023/07/08 02:14:24;;;;;;;11.27;4.50;;;23.60;88.30;;;;;;5048257;28;20112;-74
2023/07/08 02:16:50;;;;;;;12.43;4.73;;;23.60;90.20;;;;;;5050707;28;20033;-74
2023/07/08 02:19:15;;;;;;;8.40;4.60;;;23.70;91.10;;;;;;5049101;28;20036;-72
2023/07/08 02:21:41;;;;;;;10.63;5.00;;;23.60;90.80;;;;;;5048429;28;20513;-74
2023/07/08 02:24:08;;;;;;;11.50;4.60;;;23.60;87.30;;;;;;5048130;28;20104;-74
2023/07/08 02:26:33;;;;;;;11.93;4.40;;;23.10;90.20;;;;;;5047651;28;20362;-74
2023/07/08 02:28:59;;;;;;;15.43;4.27;;;23.40;82.10;;;;;;5048241;28;20087;-74
2023/07/08 02:31:26;;;;;;;12.77;4.90;;;23.40;81.50;;;;;;5047667;28;20033;-75
2023/07/08 02:33:52;;;;;;;8.30;4.10;;;23.50;81.50;;;;;;5048107;28;20411;-76
2023/07/08 02:36:18;;;;;;;12.65;4.63;;;23.60;82.40;;;;;;5047875;28;20063;-76
2023/07/08 02:38:44;;;;;;;10.93;4.65;;;23.60;81.40;;;;;;5048018;28;20473;-77
2023/07/08 02:41:11;;;;;;;13.50;4.63;;;23.60;81.50;;;;;;5047523;28;20144;-76
2023/07/08 02:43:37;;;;;;;12.15;4.32;;;23.60;80.80;;;;;;5045886;28;20663;-77
2023/07/08 02:46:03;;;;;;;10.30;4.53;;;23.70;79.90;;;;;;5047752;28;20032;-76
2023/07/08 02:48:28;;;;;;;10.43;4.73;;;23.70;83.20;;;;;;5047885;28;20032;-77
2023/07/08 02:51:00;;;;;;;10.93;4.87;;;23.60;86.30;;;;;;5047750;28;20040;-77
2023/07/08 02:53:25;;;;;;;12.43;4.40;;;23.60;85.40;;;;;;5047579;28;20025;-77
2023/07/08 02:55:51;;;;;;;12.02;4.97;;;23.60;86.10;;;;;;5044783;28;20150;-77
2023/07/08 02:58:16;;;;;;;11.20;4.70;;;23.40;86.90;;;;;;5047971;28;20033;-70
2023/07/08 03:00:42;;;;;;;8.13;4.83;;;23.40;89.90;;;;;;5047653;28;20283;-73
2023/07/08 03:03:08;;;;;;;14.23;4.80;;;23.40;88.40;;;;;;5046829;28;20416;-72
2023/07/08 03:05:33;;;;;;;13.37;4.60;;;23.40;88.40;;;;;;5047283;28;20013;-76
2023/07/08 03:07:59;;;;;;;8.27;4.55;;;23.30;84.10;;;;;;5046828;28;20060;-74
2023/07/08 03:10:26;;;;;;;10.70;4.70;;;23.30;87.80;;;;;;5046918;28;20484;-77
2023/07/08 03:12:51;;;;;;;16.02;4.82;;;23.40;88.00;;;;;;5047456;28;20039;-75
2023/07/08 03:15:17;;;;;;;10.80;4.67;;;23.40;88.70;;;;;;5046980;28;20028;-76
2023/07/08 03:17:43;;;;;;;9.23;4.25;;;23.40;90.80;;;;;;5047337;28;20074;-77
2023/07/08 03:20:10;;;;;;;7.32;4.00;;;23.30;81.80;;;;;;5047188;28;20036;-76
2023/07/08 03:22:36;;;;;;;13.52;4.57;;;23.20;87.20;;;;;;5047553;28;20655;-75
2023/07/08 03:25:02;;;;;;;10.70;4.90;;;23.20;83.30;;;;;;5047750;28;20033;-75
2023/07/08 03:27:28;;;;;;;9.70;5.10;;;23.20;90.00;;;;;;5046841;28;20119;-73
2023/07/08 03:29:54;;;;;;;8.35;4.03;;;23.20;90.00;;;;;;5047173;28;20229;-77
2023/07/08 03:32:19;;;;;;;13.43;4.33;;;23.10;88.40;;;;;;5047359;28;20032;-73
2023/07/08 03:34:45;;;;;;;12.63;5.13;;;23.10;90.00;;;;;;5046782;28;20027;-70
2023/07/08 03:37:11;;;;;;;12.17;4.27;;;23.00;85.30;;;;;;5045798;28;20032;-71
2023/07/08 03:39:36;;;;;;;7.13;4.30;;;23.00;91.00;;;;;;5046731;28;20279;-69
2023/07/08 03:42:03;;;;;;;11.70;5.00;;;23.10;91.20;;;;;;5046717;28;20047;-71
2023/07/08 03:44:29;;;;;;;13.73;4.65;;;23.10;91.00;;;;;;5061476;28;20021;-69
2023/07/08 03:46:55;;;;;;;13.60;4.47;;;22.90;91.50;;;;;;5046777;28;20021;-69
2023/07/08 03:49:23;;;;;;;15.50;4.95;;;23.10;87.60;;;;;;5046188;28;20021;-68
2023/07/08 03:51:51;;;;;;;11.40;4.68;;;23.10;86.00;;;;;;5051469;28;20037;-71
2023/07/08 03:54:18;;;;;;;13.30;5.05;;;23.00;85.80;;;;;;5049664;28;20029;-77
2023/07/08 03:56:44;;;;;;;11.68;4.70;;;23.00;85.90;;;;;;5052616;28;20040;-75
2023/07/08 03:59:10;;;;;;;13.07;5.22;;;23.00;86.70;;;;;;5050250;28;20028;-69
2023/07/08 04:01:40;;;;;;;13.40;4.03;;;22.80;88.70;;;;;;5053070;28;20033;-69
2023/07/08 04:04:08;;;;;;;12.43;4.45;;;22.90;87.10;;;;;;5046775;28;20396;-71
2023/07/08 04:06:34;;;;;;;7.88;4.50;;;22.80;86.90;;;;;;5085547;28;20037;-74
2023/07/08 04:09:00;;;;;;;10.38;4.80;;;22.90;86.60;;;;;;5048152;28;20134;-74
2023/07/08 04:11:26;;;;;;;11.73;4.90;;;23.00;86.90;;;;;;5050830;28;20043;-74
2023/07/08 04:13:52;;;;;;;13.15;4.57;;;22.80;86.30;;;;;;5052688;28;20036;-75
2023/07/08 04:16:28;;;;;;;14.35;5.03;;;22.80;87.10;;;;;;5049503;28;20045;-74
2023/07/08 04:18:55;;;;;;;15.43;5.10;;;22.90;87.40;;;;;;5049410;28;20111;-74
2023/07/08 04:21:22;;;;;;;16.50;5.65;;;22.90;85.70;;;;;;5049712;28;20509;-74
2023/07/08 04:23:48;;;;;;;12.00;4.97;;;22.90;85.20;;;;;;5051135;28;20044;-74
2023/07/08 04:26:14;;;;;;;14.23;5.20;;;22.90;85.80;;;;;;5049378;28;20024;-73
2023/07/08 04:28:42;;;;;;;13.45;4.38;;;22.90;85.20;;;;;;5049765;28;20029;-71
2023/07/08 04:31:07;;;;;;;9.43;5.10;;;22.90;85.70;;;;;;5081984;28;20037;-73
2023/07/08 04:33:33;;;;;;;12.88;5.07;;;22.90;85.70;;;;;;5052647;28;20036;-73
2023/07/08 04:35:59;;;;;;;7.70;4.30;;;22.90;84.80;;;;;;5051437;28;20056;-74
2023/07/08 04:38:26;;;;;;;14.30;4.47;;;22.80;85.50;;;;;;5049159;28;20382;-73
2023/07/08 04:40:53;;;;;;;11.35;5.00;;;22.80;85.70;;;;;;5053268;28;20112;-74
2023/07/08 04:43:20;;;;;;;14.98;5.07;;;22.90;86.50;;;;;;5055743;28;20032;-71
2023/07/08 04:45:51;;;;;;;15.23;4.60;;;22.70;85.50;;;;;;5050092;28;20094;-72
2023/07/08 04:48:18;;;;;;;11.02;4.97;;;22.70;86.20;;;;;;5050388;28;20563;-73
2023/07/08 04:50:46;;;;;;;16.48;4.85;;;22.70;86.00;;;;;;5053314;28;20052;-74
2023/07/08 04:53:12;;;;;;;15.73;4.72;;;22.80;85.60;;;;;;5049299;28;20033;-74
2023/07/08 04:55:44;;;;;;;9.65;4.47;;;22.80;86.20;;;;;;5050028;28;20040;-73
2023/07/08 04:58:10;;;;;;;9.18;4.60;;;22.70;86.30;;;;;;5049660;28;20072;-73
2023/07/08 05:00:36;;;;;;;14.00;4.85;;;22.60;87.10;;;;;;5048891;28;20999;-74
2023/07/08 05:03:02;;;;;;;11.38;5.05;;;22.70;87.20;;;;;;5049761;28;20040;-73
2023/07/08 05:05:27;;;;;;;13.23;4.85;;;22.60;87.50;;;;;;5052135;28;20043;-71
2023/07/08 05:07:53;;;;;;;8.10;4.07;;;22.60;87.30;;;;;;5066770;28;20032;-73
2023/07/08 05:10:19;;;;;;;9.63;4.47;;;22.60;88.40;;;;;;5049483;28;20032;-73
2023/07/08 05:12:46;;;;;;;12.98;5.35;;;22.50;87.60;;;;;;5084765;28;20028;-74
2023/07/08 05:15:12;;;;;;;6.18;4.00;;;22.60;88.00;;;;;;5051574;28;20488;-74
2023/07/08 05:17:39;;;;;;;17.52;4.90;;;22.90;86.90;;;;;;5058486;28;20111;-71
2023/07/08 05:20:10;;;;;;;13.35;4.85;;;23.00;87.60;;;;;;5048910;28;20029;-74
2023/07/08 05:22:36;;;;;;;9.10;4.75;;;23.10;86.70;;;;;;5049233;28;20021;-72
2023/07/08 05:25:02;;;;;;;11.40;5.07;;;23.30;85.80;;;;;;5048410;28;20500;-74
2023/07/08 05:27:28;;;;;;;17.02;4.90;;;23.80;83.90;;;;;;5049080;28;20311;-74
2023/07/08 05:29:53;;;;;;;10.52;5.15;;;24.60;81.40;;;;;;5049326;28;20035;-75
2023/07/08 05:32:20;;;;;;;12.13;4.53;;;25.00;80.10;;;;;;5050851;28;20036;-70
2023/07/08 05:34:46;;;;;;;9.65;4.70;;;24.90;81.00;;;;;;5054153;28;20484;-74
2023/07/08 05:37:13;;;;;;;14.13;4.97;;;25.30;80.00;;;;;;5050165;28;20021;-71
2023/07/08 05:39:40;;;;;;;12.57;5.25;;;26.40;75.70;;;;;;5051190;28;20039;-72
2023/07/08 05:42:06;;;;;;;17.08;5.32;;;27.80;72.10;;;;;;5055946;28;20120;-70
2023/07/08 05:44:31;;;;;;;;;;;28.50;67.00;;;;;;5049838;28;20055;-71
2023/07/08 05:46:57;;;;;;;9.90;4.40;;;28.60;67.40;;;;;;5048933;28;19916;-72
2023/07/08 05:49:23;;;;;;;14.63;4.78;;;28.70;66.70;;;;;;5050461;28;20112;-71
2023/07/08 05:51:49;;;;;;;9.75;4.35;;;29.00;65.20;;;;;;5050671;28;20045;-72
2023/07/08 05:54:14;;;;;;;10.52;4.35;;;29.50;66.90;;;;;;5049536;28;20036;-73
2023/07/08 05:56:40;;;;;;;8.00;4.03;;;29.10;64.90;;;;;;5050139;28;20040;-72
2023/07/08 05:59:06;;;;;;;11.55;4.35;;;30.10;64.10;;;;;;5045339;28;20036;-77
2023/07/08 06:01:32;;;;;;;10.70;4.13;;;30.70;63.50;;;;;;5046922;28;20029;-76
2023/07/08 06:04:00;;;;;;;9.60;4.72;;;30.20;61.50;;;;;;5065967;28;20013;-74
2023/07/08 06:06:27;;;;;;;11.35;3.92;;;30.10;62.50;;;;;;5053229;28;20031;-76
2023/07/08 06:08:53;;;;;;;10.27;3.95;;;31.00;62.20;;;;;;5047819;28;20043;-70
2023/07/08 06:11:19;;;;;;;11.90;4.47;;;32.10;62.80;;;;;;5047542;28;20036;-72
2023/07/08 06:13:45;;;;;;;10.85;4.07;;;31.90;60.90;;;;;;5051338;28;20032;-73
2023/07/08 06:16:11;;;;;;;;;;;31.90;59.10;;;;;;5052369;28;20028;-73
2023/07/08 06:18:36;;;;;;;7.32;4.20;;;32.90;59.10;;;;;;5056825;28;19913;-72
2023/07/08 06:21:02;;;;;;;;;;;32.30;59.40;;;;;;5052638;28;20400;-73
2023/07/08 06:23:28;;;;;;;10.45;5.03;;;32.70;58.30;;;;;;5050215;28;19970;-75
2023/07/08 06:25:54;;;;;;;;;;;32.00;58.60;;;;;;5054043;28;20040;-76
2023/07/08 06:28:20;;;;;;;11.32;4.00;;;32.20;58.50;;;;;;5046568;28;20457;-74
2023/07/08 06:30:47;;;;;;;9.35;4.03;;;32.10;59.40;;;;;;5047149;28;20044;-75
2023/07/08 06:33:13;;;;;;;5.90;3.80;;;32.20;58.50;;;;;;5048864;28;20041;-75
2023/07/08 06:35:39;;;;;;;10.77;4.30;;;33.70;58.50;;;;;;5044797;28;20048;-74
2023/07/08 06:38:06;;;;;;;8.20;4.20;;;33.20;59.00;;;;;;5048327;28;20028;-74
2023/07/08 06:40:32;;;;;;;10.90;4.30;;;33.20;58.20;;;;;;5047594;28;20025;-75
2023/07/08 06:42:57;;;;;;;8.88;3.88;;;34.40;58.40;;;;;;5047130;28;20105;-71
2023/07/08 06:45:23;;;;;;;7.20;4.18;;;33.70;59.20;;;;;;5045464;28;20609;-74
2023/07/08 06:47:49;;;;;;;;;;;30.90;60.80;;;;;;5052782;28;20029;-73
2023/07/08 06:50:14;;;;;;;12.23;4.13;;;30.10;60.70;;;;;;5077610;28;19912;-72
2023/07/08 06:52:40;;;;;;;;;;;30.00;62.50;;;;;;5081337;28;20111;-73
2023/07/08 06:55:08;;;;;;;10.45;4.75;;;29.90;65.10;;;;;;5049224;28;19972;-75
2023/07/08 06:57:34;;;;;;;10.95;4.18;;;30.20;63.50;;;;;;5049077;28;20052;-74
2023/07/08 07:00:00;;;;;;;;;;;30.80;60.30;;;;;;5051935;28;20107;-73
2023/07/08 07:02:26;;;;;;;11.88;4.22;;;31.70;59.20;;;;;;5048696;28;19926;-71
2023/07/08 07:04:52;;;;;;;8.95;3.65;;;31.60;58.40;;;;;;5050998;28;20108;-71
2023/07/08 07:07:18;;;;;;;;;;;30.90;59.30;;;;;;5054626;28;20695;-71
2023/07/08 07:09:43;;;;;;;7.78;3.90;;;30.80;61.30;;;;;;5046440;28;19916;-72
2023/07/08 07:12:09;;;;;;;;;;;30.60;60.70;;;;;;5047571;28;20036;-70
2023/07/08 07:14:34;;;;;;;16.13;4.60;;;29.90;59.10;;;;;;5047288;28;19909;-70
2023/07/08 07:17:00;;;;;;;;;;;29.80;60.90;;;;;;5047349;28;20504;-70
2023/07/08 07:19:26;;;;;;;9.68;4.47;;;31.00;60.10;;;;;;5047397;28;20400;-69
2023/07/08 07:21:51;;;;;;;16.02;3.67;;;30.90;62.20;;;;;;5049824;28;20122;-67
2023/07/08 07:24:18;;;;;;;10.40;4.30;;;29.60;62.10;;;;;;5049299;28;20708;-72
2023/07/08 07:26:43;;;;;;;9.43;3.60;;;29.40;64.30;;;;;;5045978;28;20051;-71
2023/07/08 07:29:09;;;;;;;13.13;4.78;;;29.00;65.40;;;;;;5045000;28;20032;-71
2023/07/08 07:31:35;;;;;;;10.70;4.53;;;29.00;63.00;;;;;;5043863;28;20063;-72
2023/07/08 07:34:01;;;;;;;14.43;4.32;;;28.50;64.60;;;;;;5045678;28;20024;-70
2023/07/08 07:36:28;;;;;;;8.65;4.28;;;28.40;65.40;;;;;;5048692;28;20033;-71
2023/07/08 07:38:54;;;;;;;11.02;3.88;;;28.50;64.90;;;;;;5051215;28;20029;-69
2023/07/08 07:41:19;;;;;;;9.68;4.20;;;28.50;64.70;;;;;;5046244;28;20090;-69
2023/07/08 07:43:45;;;;;;;11.50;5.10;;;28.60;66.80;;;;;;5050263;28;20032;-69
2023/07/08 07:46:12;;;;;;;7.10;3.88;;;28.50;63.50;;;;;;5055730;28;20436;-70
2023/07/08 07:48:38;;;;;;;15.52;4.00;;;28.50;62.60;;;;;;5046276;28;20063;-67
2023/07/08 07:51:04;;;;;;;8.70;4.00;;;27.80;63.40;;;;;;5047495;28;20489;-69
2023/07/08 07:53:30;;;;;;;18.85;4.85;;;27.70;62.60;;;;;;5050619;28;20045;-70
2023/07/08 07:56:00;;;;;;;12.98;4.65;;;27.90;65.30;;;;;;5049179;28;20040;-69
2023/07/08 07:58:26;;;;;;;8.82;4.25;;;28.20;63.30;;;;;;5048351;28;20481;-67
2023/07/08 08:00:51;;;;;;;8.02;4.15;;;28.40;65.60;;;;;;5047828;28;20060;-70
2023/07/08 08:03:17;;;;;;;10.38;4.30;;;28.90;68.40;;;;;;5046761;28;20052;-70
2023/07/08 08:05:43;;;;;;;13.10;4.03;;;29.00;66.60;;;;;;5048966;28;20031;-70
2023/07/08 08:08:09;;;;;;;10.40;4.35;;;29.20;63.60;;;;;;5045829;28;20041;-69
2023/07/08 08:10:35;;;;;;;13.65;4.03;;;29.10;65.20;;;;;;5047264;28;20029;-70
2023/07/08 08:13:02;;;;;;;11.65;5.18;;;29.40;63.00;;;;;;5051731;28;20048;-71
2023/07/08 08:15:28;;;;;;;8.10;3.72;;;29.60;67.10;;;;;;5049151;28;20100;-71
2023/07/08 08:17:54;;;;;;;8.82;4.00;;;30.30;65.20;;;;;;5046224;28;20575;-67
2023/07/08 08:20:22;;;;;;;;;;;31.30;63.50;;;;;;5048944;28;20098;-67
2023/07/08 08:22:47;;;;;;;16.73;4.63;;;32.20;58.10;;;;;;5049845;28;19920;-67
2023/07/08 08:25:15;;;;;;;12.05;3.90;;;31.50;59.60;;;;;;5048224;28;20037;-66
2023/07/08 08:27:41;;;;;;;9.50;4.40;;;30.60;60.30;;;;;;5046024;28;20079;-65
2023/07/08 08:30:07;;;;;;;9.80;4.65;;;30.90;61.50;;;;;;5046945;28;20033;-66
2023/07/08 08:32:33;;;;;;;12.13;4.50;;;31.90;59.10;;;;;;5046537;28;20044;-66
2023/07/08 08:34:59;;;;;;;9.65;4.50;;;35.50;55.90;;;;;;5046798;28;20112;-66
2023/07/08 08:37:25;;;;;;;7.60;4.45;;;38.00;50.20;;;;;;5049008;28;20100;-66
2023/07/08 08:39:50;;;;;;;14.25;4.22;;;37.90;49.30;;;;;;5050257;28;20043;-66
2023/07/08 08:42:25;;;;;;;;;;;38.70;50.30;;;;;;5051785;28;20183;-66
2023/07/08 08:44:51;;;;;;;11.10;4.20;;;39.10;47.30;;;;;;5050547;28;20007;-66
2023/07/08 08:47:29;;;;;;;;;;;38.40;48.30;;;;;;5051546;28;20579;-69
2023/07/08 08:50:24;;;;;;;10.30;4.18;;;37.50;49.70;;;;;;5050436;28;19913;-67
2023/07/08 08:52:50;;;;;;;16.52;5.43;;;37.70;49.60;;;;;;5049238;28;20521;-67
2023/07/08 08:55:16;;;;;;;24.70;4.90;;;37.00;49.10;;;;;;5049081;28;20061;-67
2023/07/08 08:57:49;;;;;;;12.60;4.05;;;34.30;56.00;;;;;;5049148;28;20025;-70
2023/07/08 09:00:23;;;;;;;6.70;3.63;;;33.70;54.30;;;;;;5053383;28;20496;-70
2023/07/08 09:03:01;;;;;;;11.55;4.45;;;35.20;52.80;;;;;;5047240;28;20045;-70
2023/07/08 09:05:27;;;;;;;5.70;3.85;;;38.50;48.10;;;;;;5050877;28;20373;-69
2023/07/08 09:08:12;;;;;;;7.25;3.97;;;39.60;46.50;;;;;;5049878;28;20043;-71
2023/07/08 09:10:37;;;;;;;9.57;4.35;;;40.80;46.10;;;;;;5049911;28;20816;-71
2023/07/08 09:13:06;;;;;;;10.93;4.38;;;42.70;46.80;;;;;;5048657;28;20100;-71
2023/07/08 09:15:32;;;;;;;10.60;4.25;;;40.90;45.40;;;;;;5047159;28;20914;-72
2023/07/08 09:18:13;;;;;;;7.40;3.88;;;40.20;45.60;;;;;;5051599;28;20029;-72
2023/07/08 09:20:39;;;;;;;11.35;4.72;;;42.00;46.20;;;;;;5047587;28;20372;-69
2023/07/08 09:23:21;;;;;;;13.90;5.00;;;43.70;43.80;;;;;;5052769;28;20033;-72
2023/07/08 09:25:59;;;;;;;9.32;4.00;;;43.70;43.80;;;;;;5049657;28;20476;-71
2023/07/08 09:28:42;;;;;;;9.73;3.85;;;45.10;43.30;;;;;;5048211;28;20028;-70
2023/07/08 09:31:20;;;;;;;7.45;4.32;;;45.10;41.20;;;;;;5044210;28;20081;-72
2023/07/08 09:33:46;;;;;;;6.45;3.88;;;45.00;41.90;;;;;;5048630;28;20083;-71
2023/07/08 09:36:22;;;;;;;8.70;5.10;;;46.80;43.80;;;;;;5048648;28;20025;-71
2023/07/08 09:38:50;;;;;;;6.18;4.10;;;46.20;41.10;;;;;;5060802;28;20401;-72
2023/07/08 09:41:33;;;;;;;7.22;3.72;;;46.90;41.90;;;;;;5051240;28;20031;-70
2023/07/08 09:44:14;;;;;;;17.90;4.38;;;47.10;39.50;;;;;;5052989;28;20094;-71
2023/07/08 09:46:40;;;;;;;14.25;4.80;;;44.70;40.80;;;;;;5059307;28;20036;-69
2023/07/08 09:49:31;;;;;;;5.15;4.15;;;45.80;41.00;;;;;;5045039;28;20025;-71
2023/07/08 09:51:58;;;;;;;8.75;3.92;;;44.90;40.30;;;;;;5055522;28;20112;-68
2023/07/08 09:54:25;;;;;;;8.45;4.30;;;46.80;39.10;;;;;;5061010;28;20063;-72
2023/07/08 09:56:54;;;;;;;10.90;3.83;;;45.80;40.50;;;;;;5052547;28;20095;-72
2023/07/08 09:59:25;;;;;;;5.82;3.92;;;46.40;40.10;;;;;;5046037;28;20586;-68
2023/07/08 10:01:51;;;;;;;7.30;4.20;;;47.00;40.20;;;;;;5048233;28;20041;-68
2023/07/08 10:04:19;;;;;;;9.38;4.50;;;47.40;40.50;;;;;;5047247;28;20044;-69
2023/07/08 10:06:47;;;;;;;10.15;4.03;;;48.60;39.00;;;;;;5049123;28;20548;-72
2023/07/08 10:09:19;;;;;;;8.85;4.28;;;47.60;40.40;;;;;;5044291;28;20500;-70
2023/07/08 10:11:52;;;;;;;7.63;4.43;;;48.30;41.50;;;;;;5046504;28;20029;-70
2023/07/08 10:14:24;;;;;;;6.57;3.88;;;46.90;40.00;;;;;;5050654;28;20064;-70
2023/07/08 10:16:50;;;;;;;8.95;4.43;;;47.50;39.50;;;;;;5048999;28;20037;-68
2023/07/08 10:19:18;;;;;;;9.93;4.45;;;47.80;40.10;;;;;;5049624;28;20090;-71
2023/07/08 10:22:09;;;;;;;12.63;4.20;;;46.30;39.90;;;;;;5050373;28;20041;-71
2023/07/08 10:24:48;;;;;;;7.15;4.47;;;46.60;39.10;;;;;;5047823;28;20033;-69
2023/07/08 10:27:22;;;;;;;8.55;4.70;;;45.00;40.50;;;;;;5046761;28;20017;-69
2023/07/08 10:30:11;;;;;;;10.82;4.38;;;44.30;40.10;;;;;;5049129;28;20033;-69
2023/07/08 10:32:55;;;;;;;7.90;3.85;;;40.30;44.10;;;;;;5046853;28;20090;-68
2023/07/08 10:35:28;;;;;;;7.00;3.90;;;38.90;47.50;;;;;;5050121;28;20103;-67
2023/07/08 10:38:21;;;;;;;13.00;4.60;;;37.00;48.90;;;;;;5048107;28;20032;-67
2023/07/08 10:40:46;;;;;;;8.20;4.30;;;35.70;51.60;;;;;;5047437;28;20029;-67
2023/07/08 10:43:33;;;;;;;8.57;4.88;;;35.40;51.60;;;;;;5047847;28;20094;-66
2023/07/08 10:46:12;;;;;;;8.48;4.55;;;35.30;51.50;;;;;;5047117;28;20033;-68
2023/07/08 10:49:08;;;;;;;14.10;4.38;;;35.00;52.00;;;;;;5047159;28;20025;-67
2023/07/08 10:52:11;;;;;;;7.88;4.10;;;34.60;52.80;;;;;;5046788;28;20391;-66
2023/07/08 10:54:58;;;;;;;6.38;3.92;;;35.00;54.00;;;;;;5025819;28;20195;-66
2023/07/08 10:57:48;;;;;;;;;;;34.10;51.10;;;;;;5045020;28;20053;-67
2023/07/08 11:00:27;;;;;;;8.73;4.40;;;34.40;52.50;;;;;;5043195;28;19908;-70
2023/07/08 11:03:17;;;;;;;10.25;4.65;;;34.50;55.90;;;;;;5045701;28;20545;-70
2023/07/08 11:05:51;;;;;;;8.02;3.92;;;34.60;52.80;;;;;;5048595;28;20362;-67
2023/07/08 11:08:45;;;;;;;11.50;4.13;;;34.70;55.10;;;;;;5045652;28;20040;-70
2023/07/08 11:11:17;;;;;;;13.55;3.95;;;34.70;55.10;;;;;;5043498;28;20071;-71
2023/07/08 11:13:50;;;;;;;9.07;3.80;;;34.50;52.70;;;;;;5048432;28;20033;-70
2023/07/08 11:16:24;;;;;;;8.77;4.43;;;34.50;53.70;;;;;;5047328;28;20772;-71
2023/07/08 11:19:23;;;;;;;10.20;3.75;;;34.50;53.70;;;;;;5048463;28;20583;-72
2023/07/08 11:21:57;;;;;;;10.63;4.47;;;34.60;55.50;;;;;;5027662;28;20144;-71
2023/07/08 11:24:46;;;;;;;9.70;4.30;;;34.80;55.10;;;;;;5045801;28;20075;-68
2023/07/08 11:27:26;;;;;;;17.42;4.30;;;34.90;56.50;;;;;;5039262;28;20017;-70
2023/07/08 11:30:07;;;;;;;7.15;3.45;;;34.70;51.70;;;;;;5047097;28;20098;-72
2023/07/08 11:32:35;;;;;;;8.20;4.70;;;34.60;54.50;;;;;;5047038;28;20029;-72
2023/07/08 11:35:04;;;;;;;9.68;3.88;;;35.00;54.80;;;;;;5048373;28;20133;-70
2023/07/08 11:37:31;;;;;;;9.32;4.95;;;34.90;52.60;;;;;;5048312;28;20025;-72
2023/07/08 11:40:19;;;;;;;7.97;3.97;;;34.70;56.50;;;;;;5043624;28;20119;-68
2023/07/08 11:42:48;;;;;;;12.93;4.82;;;34.50;54.70;;;;;;5049648;28;20137;-72
2023/07/08 11:45:17;;;;;;;7.55;4.05;;;34.70;54.70;;;;;;5049327;28;20392;-67
2023/07/08 11:47:46;;;;;;;10.35;4.00;;;34.60;56.50;;;;;;5053109;28;20055;-72
2023/07/08 11:50:29;;;;;;;6.57;3.92;;;34.40;54.60;;;;;;5040709;28;20029;-71
2023/07/08 11:53:02;;;;;;;8.27;3.92;;;34.40;52.80;;;;;;5047089;28;20060;-72
2023/07/08 11:55:55;;;;;;;9.27;4.25;;;34.20;52.00;;;;;;5049657;28;20033;-67
2023/07/08 11:58:32;;;;;;;11.25;4.10;;;34.10;51.70;;;;;;5041551;28;20048;-72
2023/07/08 12:01:04;;;;;;;;;;;34.10;54.80;;;;;;5049067;28;20040;-66
2023/07/08 12:03:47;;;;;;;7.60;3.92;;;34.20;53.50;;;;;;5046756;28;20291;-72
2023/07/08 12:06:29;;;;;;;6.57;4.07;;;34.30;55.50;;;;;;5050417;28;20688;-68
2023/07/08 12:08:57;;;;;;;11.50;4.13;;;34.20;53.90;;;;;;5045083;28;20493;-70
2023/07/08 12:11:34;;;;;;;8.88;4.10;;;34.40;55.40;;;;;;5047875;28;20029;-66
2023/07/08 12:14:03;;;;;;;9.52;4.13;;;34.40;52.80;;;;;;5049833;28;20040;-69
2023/07/08 12:16:31;;;;;;;8.38;3.72;;;34.50;54.00;;;;;;5050353;28;20542;-69
2023/07/08 12:18:59;;;;;;;6.70;3.35;;;34.10;52.80;;;;;;5052707;28;20410;-68
2023/07/08 12:21:26;;;;;;;11.18;3.80;;;34.30;55.80;;;;;;5048707;28;20032;-68
2023/07/08 12:23:52;;;;;;;11.77;4.25;;;34.30;54.30;;;;;;5047405;28;20033;-67
2023/07/08 12:26:18;;;;;;;;;;;34.10;53.30;;;;;;5053709;28;20270;-69
2023/07/08 12:28:44;;;;;;;9.75;3.92;;;34.10;52.40;;;;;;5052833;28;19913;-70
2023/07/08 12:31:17;;;;;;;9.82;4.28;;;34.00;53.60;;;;;;5048558;28;20095;-66
2023/07/08 12:33:44;;;;;;;10.23;3.80;;;33.90;53.30;;;;;;5052436;28;20035;-68
2023/07/08 12:36:16;;;;;;;7.05;3.60;;;33.80;53.60;;;;;;5054627;28;20344;-67
2023/07/08 12:38:45;;;;;;;12.63;4.07;;;33.90;53.90;;;;;;5086208;28;20067;-69
2023/07/08 12:41:20;;;;;;;7.85;4.22;;;34.00;52.30;;;;;;5051795;28;20060;-70
2023/07/08 12:43:46;;;;;;;9.70;3.85;;;33.60;52.90;;;;;;5049901;28;20523;-70
2023/07/08 12:46:15;;;;;;;8.45;3.95;;;33.80;53.30;;;;;;5047714;28;20032;-71
2023/07/08 12:48:41;;;;;;;7.38;4.22;;;33.90;52.90;;;;;;5049181;28;20017;-70
2023/07/08 12:51:10;;;;;;;;;;;33.90;49.50;;;;;;5040436;28;20041;-71
2023/07/08 12:53:36;;;;;;;6.40;3.67;;;34.10;54.20;;;;;;5053939;28;20050;-70
2023/07/08 12:56:02;;;;;;;;;;;34.00;52.90;;;;;;5051976;28;20577;-70